Time;durP1;ratioP1;P1;durP2;ratioP2;P2;SDS_P1;SDS_P2;PMS_P1;PMS_P2;Temp;Humidity;BMP_temperature;BMP_pressure;BME280_temperature;BME280_humidity;BME280_pressure;Samples;Min_cycle;Max_cycle;Signal;HPM_P1;HPM_P2
2021/01/28 00:00:53;;;;;;;25.87;9.73;;;;;;;;;;5048041;28;20213;-72
2021/01/28 00:03:18;;;;;;;23.07;7.83;;;;;;;;;;5044241;28;20193;-71
2021/01/28 00:05:45;;;;;;;23.93;7.90;;;;;;;;;;5047531;28;20201;-71
2021/01/28 00:08:10;;;;;;;19.93;8.23;;;;;;;;;;5038930;28;20188;-71
2021/01/28 00:10:36;;;;;;;24.27;6.47;;;;;;;;;;5050649;28;20184;-71
2021/01/28 00:13:03;;;;;;;19.80;7.10;;;;;;;;;;5054531;28;20228;-70
2021/01/28 00:15:31;;;;;;;21.70;6.27;;;;;;;;;;5044230;28;20193;-70
2021/01/28 00:17:57;;;;;;;12.97;6.03;;;;;;;;;;5032814;28;20259;-70
2021/01/28 00:20:39;;;;;;;20.00;6.07;;;;;;;;;;5047161;28;20220;-70
2021/01/28 00:23:05;;;;;;;13.33;5.43;;;;;;;;;;5045959;28;20209;-71
2021/01/28 00:25:31;;;;;;;14.60;5.90;;;;;;;;;;5052239;28;20715;-71
2021/01/28 00:27:57;;;;;;;15.97;5.53;;;;;;;;;;5045220;28;20184;-72
2021/01/28 00:30:30;;;;;;;17.63;5.53;;;;;;;;;;5052786;28;20645;-71
2021/01/28 00:32:56;;;;;;;14.40;5.60;;;;;;;;;;5045039;28;20247;-71
2021/01/28 00:35:28;;;;;;;16.97;4.73;;;;;;;;;;5054109;28;20201;-71
2021/01/28 00:37:55;;;;;;;19.20;5.70;;;;;;;;;;5043909;28;20228;-71
2021/01/28 00:40:21;;;;;;;12.20;5.30;;;;;;;;;;5043933;28;20292;-70
2021/01/28 00:42:48;;;;;;;14.87;5.47;;;;;;;;;;5057527;28;20185;-70
2021/01/28 00:45:19;;;;;;;16.60;5.67;;;;;;;;;;5044750;28;20188;-71
2021/01/28 00:47:44;;;;;;;15.30;5.33;;;;;;;;;;5066314;28;20195;-71
2021/01/28 00:50:10;;;;;;;13.47;4.97;;;;;;;;;;5044808;28;20280;-71
2021/01/28 00:52:38;;;;;;;17.27;5.70;;;;;;;;;;5051020;28;20196;-71
2021/01/28 00:55:04;;;;;;;11.73;5.00;;;;;;;;;;5040272;28;20193;-71
2021/01/28 00:57:29;;;;;;;15.07;4.90;;;;;;;;;;5050265;28;20196;-71
2021/01/28 00:59:54;;;;;;;17.30;5.77;;;;;;;;;;5038957;28;20209;-71
2021/01/28 01:02:20;;;;;;;18.70;5.97;;;;;;;;;;5048605;28;20199;-71
2021/01/28 01:04:45;;;;;;;14.70;5.30;;;;;;;;;;5036925;28;20576;-71
2021/01/28 01:07:10;;;;;;;13.50;5.13;;;;;;;;;;5051345;28;20675;-71
2021/01/28 01:09:36;;;;;;;13.40;4.80;;;;;;;;;;5047875;28;20190;-71
2021/01/28 01:12:01;;;;;;;16.67;5.03;;;;;;;;;;5039111;28;20185;-71
2021/01/28 01:14:27;;;;;;;14.80;5.30;;;;;;;;;;5047495;28;20232;-71
2021/01/28 01:16:52;;;;;;;16.80;6.03;;;;;;;;;;5043029;28;20193;-71
2021/01/28 01:19:17;;;;;;;12.63;5.30;;;;;;;;;;5044887;28;20201;-71
2021/01/28 01:21:43;;;;;;;15.70;5.33;;;;;;;;;;5039986;28;20535;-71
2021/01/28 01:24:08;;;;;;;12.23;5.20;;;;;;;;;;5045987;28;20568;-71
2021/01/28 01:26:33;;;;;;;14.00;4.70;;;;;;;;;;5041947;28;20198;-71
2021/01/28 01:28:59;;;;;;;13.13;5.50;;;;;;;;;;5045230;28;20258;-71
2021/01/28 01:31:24;;;;;;;15.47;5.30;;;;;;;;;;5042162;28;20715;-71
2021/01/28 01:33:50;;;;;;;11.03;4.90;;;;;;;;;;5046332;28;20320;-71
2021/01/28 01:36:15;;;;;;;19.03;5.40;;;;;;;;;;5041110;28;20236;-71
2021/01/28 01:38:40;;;;;;;18.53;5.17;;;;;;;;;;5046476;28;20218;-71
2021/01/28 01:41:06;;;;;;;10.63;5.30;;;;;;;;;;5048067;28;20169;-71
2021/01/28 01:43:31;;;;;;;19.67;4.93;;;;;;;;;;5038983;28;20196;-71
2021/01/28 01:46:03;;;;;;;10.73;5.27;;;;;;;;;;5048815;28;20181;-71
2021/01/28 01:48:50;;;;;;;13.80;5.27;;;;;;;;;;5040093;28;20239;-71
2021/01/28 01:51:21;;;;;;;15.67;5.13;;;;;;;;;;5044067;28;20181;-72
2021/01/28 01:54:04;;;;;;;12.47;5.03;;;;;;;;;;5036244;28;20540;-69
2021/01/28 01:56:34;;;;;;;13.27;5.00;;;;;;;;;;5049537;28;20256;-69
2021/01/28 01:59:14;;;;;;;13.87;5.50;;;;;;;;;;5038489;28;20640;-69
2021/01/28 02:01:45;;;;;;;22.23;6.33;;;;;;;;;;5045674;28;20189;-72
2021/01/28 02:04:11;;;;;;;11.67;5.07;;;;;;;;;;5036132;28;20211;-69
2021/01/28 02:06:41;;;;;;;13.90;4.93;;;;;;;;;;5049384;28;20217;-69
2021/01/28 02:09:09;;;;;;;12.77;5.20;;;;;;;;;;5038197;28;20323;-70
2021/01/28 02:11:35;;;;;;;14.43;5.00;;;;;;;;;;5047941;28;20199;-70
2021/01/28 02:14:02;;;;;;;12.33;5.10;;;;;;;;;;5040051;28;20284;-70
2021/01/28 02:16:32;;;;;;;18.77;5.60;;;;;;;;;;5062704;28;20174;-70
2021/01/28 02:18:59;;;;;;;15.47;5.00;;;;;;;;;;5037014;28;20233;-70
2021/01/28 02:21:28;;;;;;;10.63;5.03;;;;;;;;;;5049626;28;20200;-70
2021/01/28 02:24:12;;;;;;;12.13;5.23;;;;;;;;;;5035684;28;20205;-70
2021/01/28 02:26:44;;;;;;;13.57;5.03;;;;;;;;;;5050420;28;20268;-70
2021/01/28 02:29:10;;;;;;;13.43;4.83;;;;;;;;;;5037152;28;20264;-70
2021/01/28 02:31:37;;;;;;;17.37;5.37;;;;;;;;;;5048728;28;20181;-70
2021/01/28 02:34:06;;;;;;;16.93;5.57;;;;;;;;;;5036882;28;20263;-70
2021/01/28 02:36:35;;;;;;;13.27;5.00;;;;;;;;;;5048208;28;20221;-70
2021/01/28 02:39:00;;;;;;;12.97;5.43;;;;;;;;;;5038791;28;20206;-70
2021/01/28 02:41:25;;;;;;;14.67;5.30;;;;;;;;;;5046170;28;20711;-70
2021/01/28 02:43:52;;;;;;;15.23;5.30;;;;;;;;;;5044292;28;20185;-70
2021/01/28 02:46:19;;;;;;;17.13;5.63;;;;;;;;;;5038854;28;20188;-70
2021/01/28 02:48:48;;;;;;;14.60;5.67;;;;;;;;;;5045508;28;20196;-70
2021/01/28 02:51:13;;;;;;;14.10;5.07;;;;;;;;;;5039044;28;20661;-70
2021/01/28 02:53:40;;;;;;;10.20;5.40;;;;;;;;;;5047379;28;20212;-70
2021/01/28 02:56:06;;;;;;;12.33;5.43;;;;;;;;;;5038962;28;20189;-70
2021/01/28 02:58:32;;;;;;;15.40;6.27;;;;;;;;;;5043054;28;20260;-70
2021/01/28 03:00:58;;;;;;;10.47;5.50;;;;;;;;;;5036624;28;20182;-69
2021/01/28 03:03:24;;;;;;;14.70;5.87;;;;;;;;;;5061322;28;20199;-70
2021/01/28 03:05:50;;;;;;;20.60;5.60;;;;;;;;;;5038675;28;20213;-70
2021/01/28 03:08:17;;;;;;;15.93;5.60;;;;;;;;;;5044939;28;20184;-70
2021/01/28 03:10:43;;;;;;;18.13;5.70;;;;;;;;;;5040210;28;20186;-70
2021/01/28 03:13:10;;;;;;;16.60;5.80;;;;;;;;;;5045448;28;20213;-70
2021/01/28 03:15:35;;;;;;;18.33;5.20;;;;;;;;;;5054899;28;20185;-70
2021/01/28 03:18:00;;;;;;;19.77;5.80;;;;;;;;;;5037981;28;20189;-70
2021/01/28 03:20:26;;;;;;;17.03;5.30;;;;;;;;;;5064299;28;20242;-70
2021/01/28 03:22:51;;;;;;;16.73;5.90;;;;;;;;;;5037385;28;20204;-70
2021/01/28 03:25:18;;;;;;;13.67;5.47;;;;;;;;;;5055364;28;20189;-70
2021/01/28 03:27:44;;;;;;;15.73;5.40;;;;;;;;;;5036370;28;20185;-70
2021/01/28 03:30:17;;;;;;;16.63;6.33;;;;;;;;;;5049364;28;20536;-70
2021/01/28 03:32:42;;;;;;;20.43;5.70;;;;;;;;;;5035377;28;20204;-70
2021/01/28 03:35:08;;;;;;;13.50;5.43;;;;;;;;;;5051862;28;20572;-70
2021/01/28 03:37:34;;;;;;;13.03;6.17;;;;;;;;;;5035335;28;20221;-70
2021/01/28 03:39:59;;;;;;;16.17;6.03;;;;;;;;;;5046543;28;20221;-70
2021/01/28 03:42:25;;;;;;;17.73;6.27;;;;;;;;;;5034813;28;20814;-70
2021/01/28 03:44:50;;;;;;;14.97;6.80;;;;;;;;;;5048227;28;20619;-70
2021/01/28 03:47:16;;;;;;;16.33;6.03;;;;;;;;;;5056980;28;20190;-70
2021/01/28 03:49:41;;;;;;;15.93;6.47;;;;;;;;;;5040371;28;20181;-70
2021/01/28 03:52:06;;;;;;;17.17;6.17;;;;;;;;;;5047448;28;20528;-70
2021/01/28 03:54:31;;;;;;;18.70;6.33;;;;;;;;;;5036594;28;20201;-69
2021/01/28 03:56:57;;;;;;;15.43;6.33;;;;;;;;;;5044222;28;20197;-69
2021/01/28 03:59:22;;;;;;;15.27;6.40;;;;;;;;;;5038158;28;20205;-69
2021/01/28 04:01:48;;;;;;;17.33;6.40;;;;;;;;;;5043655;28;20640;-69
2021/01/28 04:04:13;;;;;;;17.30;6.57;;;;;;;;;;5037445;28;20722;-69
2021/01/28 04:06:38;;;;;;;15.13;6.60;;;;;;;;;;5043728;28;20217;-69
2021/01/28 04:09:04;;;;;;;15.53;6.00;;;;;;;;;;5039004;28;20188;-69
2021/01/28 04:11:29;;;;;;;17.57;6.00;;;;;;;;;;5046222;28;20196;-69
2021/01/28 04:13:55;;;;;;;16.37;6.70;;;;;;;;;;5037221;28;20185;-69
2021/01/28 04:16:20;;;;;;;19.43;8.13;;;;;;;;;;5045460;28;20292;-69
2021/01/28 04:18:45;;;;;;;22.40;7.97;;;;;;;;;;5042803;28;20664;-69
2021/01/28 04:21:11;;;;;;;21.03;7.80;;;;;;;;;;5037306;28;20422;-69
2021/01/28 04:23:36;;;;;;;23.37;7.60;;;;;;;;;;5049296;28;20198;-69
2021/01/28 04:26:01;;;;;;;20.40;7.77;;;;;;;;;;5034564;28;20194;-69
2021/01/28 04:28:27;;;;;;;20.57;7.03;;;;;;;;;;5049697;28;20192;-69
2021/01/28 04:30:52;;;;;;;19.50;7.37;;;;;;;;;;5036805;28;21087;-69
2021/01/28 04:33:17;;;;;;;23.57;7.50;;;;;;;;;;5045093;28;20256;-69
2021/01/28 04:35:43;;;;;;;21.50;7.27;;;;;;;;;;5036571;28;20276;-69
2021/01/28 04:38:08;;;;;;;24.67;7.60;;;;;;;;;;5045575;28;20228;-69
2021/01/28 04:40:41;;;;;;;24.63;7.50;;;;;;;;;;5037978;28;20213;-69
2021/01/28 04:43:28;;;;;;;28.73;9.47;;;;;;;;;;5043747;28;20231;-69
2021/01/28 04:45:56;;;;;;;22.97;9.30;;;;;;;;;;5035772;28;20196;-69
2021/01/28 04:48:22;;;;;;;28.00;9.70;;;;;;;;;;5036874;28;20549;-69
2021/01/28 04:50:48;;;;;;;26.07;9.63;;;;;;;;;;5038741;28;20181;-69
2021/01/28 04:53:20;;;;;;;36.50;8.77;;;;;;;;;;5049018;28;20521;-69
2021/01/28 04:55:50;;;;;;;32.57;8.80;;;;;;;;;;5036234;28;20264;-70
2021/01/28 04:58:16;;;;;;;39.30;9.33;;;;;;;;;;5048945;28;20185;-70
2021/01/28 05:00:41;;;;;;;24.43;9.00;;;;;;;;;;5046905;28;20242;-69
2021/01/28 05:03:22;;;;;;;30.13;9.33;;;;;;;;;;5041586;28;20687;-69
2021/01/28 05:05:51;;;;;;;30.27;8.37;;;;;;;;;;5042123;28;20205;-69
2021/01/28 05:08:17;;;;;;;24.57;8.90;;;;;;;;;;5038174;28;20621;-70
2021/01/28 05:10:45;;;;;;;28.03;9.53;;;;;;;;;;5049247;28;20185;-69
2021/01/28 05:13:11;;;;;;;24.17;8.90;;;;;;;;;;5038950;28;20182;-69
2021/01/28 05:15:40;;;;;;;31.90;8.83;;;;;;;;;;5047007;28;20193;-70
2021/01/28 05:18:21;;;;;;;28.03;9.17;;;;;;;;;;5042920;28;20186;-70
2021/01/28 05:20:47;;;;;;;39.70;10.00;;;;;;;;;;5046575;28;20190;-70
2021/01/28 05:23:32;;;;;;;40.93;10.20;;;;;;;;;;5040659;28;20544;-69
2021/01/28 05:25:57;;;;;;;35.70;9.67;;;;;;;;;;5047213;28;20193;-69
2021/01/28 05:28:30;;;;;;;33.03;10.20;;;;;;;;;;5040839;28;20683;-69
2021/01/28 05:30:57;;;;;;;35.07;10.50;;;;;;;;;;5048335;28;20705;-69
2021/01/28 05:33:39;;;;;;;31.00;9.70;;;;;;;;;;5041160;28;20517;-69
2021/01/28 05:36:20;;;;;;;29.30;9.90;;;;;;;;;;5047059;28;20264;-69
2021/01/28 05:38:49;;;;;;;22.80;9.40;;;;;;;;;;5035829;28;20220;-69
2021/01/28 05:41:38;;;;;;;24.80;9.23;;;;;;;;;;5047768;28;20185;-69
2021/01/28 05:44:33;;;;;;;26.57;9.10;;;;;;;;;;5036441;28;20193;-69
2021/01/28 05:47:04;;;;;;;27.10;9.03;;;;;;;;;;5041908;28;20691;-69
2021/01/28 05:49:41;;;;;;;28.23;9.50;;;;;;;;;;5038738;28;20617;-69
2021/01/28 05:52:14;;;;;;;25.67;8.83;;;;;;;;;;5046935;28;20639;-70
2021/01/28 05:54:40;;;;;;;29.23;10.07;;;;;;;;;;5040030;28;20627;-70
2021/01/28 05:57:16;;;;;;;25.10;9.77;;;;;;;;;;5045717;28;20198;-70
2021/01/28 05:59:49;;;;;;;22.27;9.30;;;;;;;;;;5044579;28;20217;-70
2021/01/28 06:02:28;;;;;;;28.37;9.70;;;;;;;;;;5046257;28;20189;-70
2021/01/28 06:05:03;;;;;;;22.63;9.50;;;;;;;;;;4341913;28;10021577;-70
2021/01/28 06:07:53;;;;;;;30.30;10.30;;;;;;;;;;5043060;28;20193;-70
2021/01/28 06:10:57;;;;;;;24.87;9.23;;;;;;;;;;5034968;28;20586;-70
2021/01/28 06:13:46;;;;;;;30.97;8.77;;;;;;;;;;5037915;28;20558;-70
2021/01/28 06:16:32;;;;;;;30.33;9.07;;;;;;;;;;5034199;28;20320;-70
2021/01/28 06:19:28;;;;;;;30.67;9.17;;;;;;;;;;5043154;28;20239;-70
2021/01/28 06:21:58;;;;;;;33.67;9.13;;;;;;;;;;5035645;28;20193;-70
2021/01/28 06:24:41;;;;;;;27.40;9.30;;;;;;;;;;5048503;28;20193;-70
2021/01/28 06:27:28;;;;;;;36.80;10.03;;;;;;;;;;5033051;28;20200;-70
2021/01/28 06:30:24;;;;;;;33.43;10.17;;;;;;;;;;5041971;28;20637;-70
2021/01/28 06:32:57;;;;;;;28.70;10.83;;;;;;;;;;5032765;28;20201;-70
2021/01/28 06:35:36;;;;;;;41.10;11.57;;;;;;;;;;5043045;28;20588;-70
2021/01/28 06:38:20;;;;;;;36.33;11.77;;;;;;;;;;5034702;28;20229;-71
2021/01/28 06:40:51;;;;;;;35.43;11.83;;;;;;;;;;5039836;28;20208;-71
2021/01/28 06:43:28;;;;;;;30.77;11.13;;;;;;;;;;5038163;28;20177;-71
2021/01/28 06:46:17;;;;;;;35.60;12.23;;;;;;;;;;5041653;28;20185;-71
2021/01/28 06:48:44;;;;;;;36.37;11.90;;;;;;;;;;5036832;28;20186;-71
2021/01/28 06:51:31;;;;;;;37.43;11.63;;;;;;;;;;5039747;28;20185;-70
2021/01/28 06:54:06;;;;;;;32.80;11.10;;;;;;;;;;5040936;28;20193;-70
2021/01/28 06:56:38;;;;;;;24.97;9.80;;;;;;;;;;5040666;28;20191;-70
2021/01/28 06:59:25;;;;;;;22.63;10.20;;;;;;;;;;5042817;28;20209;-71
2021/01/28 07:01:50;;;;;;;31.73;10.30;;;;;;;;;;5044088;28;20173;-71
2021/01/28 07:04:34;;;;;;;32.13;10.90;;;;;;;;;;5036683;28;20258;-71
2021/01/28 07:07:21;;;;;;;28.80;10.20;;;;;;;;;;5046819;28;20554;-70
2021/01/28 07:09:59;;;;;;;30.93;10.40;;;;;;;;;;5041332;28;20190;-71
2021/01/28 07:12:36;;;;;;;35.30;10.67;;;;;;;;;;5040884;28;20660;-70
2021/01/28 07:15:02;;;;;;;31.03;11.03;;;;;;;;;;5042852;28;20189;-71
2021/01/28 07:17:36;;;;;;;32.77;11.43;;;;;;;;;;5045357;28;20181;-70
2021/01/28 07:20:12;;;;;;;38.60;11.60;;;;;;;;;;5038774;28;20202;-70
2021/01/28 07:22:40;;;;;;;33.63;10.80;;;;;;;;;;5050018;28;20177;-70
2021/01/28 07:25:34;;;;;;;31.10;10.10;;;;;;;;;;5037308;28;20197;-71
2021/01/28 07:28:05;;;;;;;28.63;10.47;;;;;;;;;;5035167;28;20706;-70
2021/01/28 07:30:40;;;;;;;37.70;11.20;;;;;;;;;;5035884;28;20656;-70
2021/01/28 07:33:07;;;;;;;30.23;10.93;;;;;;;;;;5047634;28;20177;-71
2021/01/28 07:35:42;;;;;;;35.40;10.97;;;;;;;;;;5036473;28;20198;-71
2021/01/28 07:38:29;;;;;;;31.70;10.83;;;;;;;;;;5044536;28;20299;-71
2021/01/28 07:41:10;;;;;;;39.77;10.63;;;;;;;;;;5033879;28;20236;-72
2021/01/28 07:43:39;;;;;;;29.80;9.80;;;;;;;;;;5045755;28;20181;-69
2021/01/28 07:46:27;;;;;;;30.53;9.63;;;;;;;;;;5032886;28;20208;-69
2021/01/28 07:49:11;;;;;;;26.57;9.30;;;;;;;;;;5053252;28;20220;-69
2021/01/28 07:51:39;;;;;;;31.83;9.33;;;;;;;;;;5034223;28;20201;-69
2021/01/28 07:54:25;;;;;;;30.47;10.47;;;;;;;;;;5040460;28;20704;-70
2021/01/28 07:57:11;;;;;;;25.30;9.60;;;;;;;;;;5034411;28;20644;-70
2021/01/28 07:59:39;;;;;;;28.10;9.50;;;;;;;;;;5041655;28;20222;-70
2021/01/28 08:02:15;;;;;;;25.20;9.43;;;;;;;;;;5034733;28;20197;-70
2021/01/28 08:04:47;;;;;;;23.20;9.43;;;;;;;;;;5044251;28;20278;-70
2021/01/28 08:07:19;;;;;;;27.80;9.90;;;;;;;;;;5035161;28;20280;-70
2021/01/28 08:09:47;;;;;;;25.77;9.87;;;;;;;;;;5044891;28;20189;-71
2021/01/28 08:12:19;;;;;;;31.13;10.63;;;;;;;;;;5031557;28;20315;-71
2021/01/28 08:14:44;;;;;;;23.10;9.90;;;;;;;;;;5044941;28;20204;-71
2021/01/28 08:17:12;;;;;;;26.87;9.83;;;;;;;;;;5035971;28;20185;-71
2021/01/28 08:19:37;;;;;;;22.73;10.57;;;;;;;;;;5043510;28;20306;-71
2021/01/28 08:22:11;;;;;;;25.03;9.90;;;;;;;;;;5035491;28;20667;-71
2021/01/28 08:24:39;;;;;;;19.13;9.30;;;;;;;;;;5038805;28;20189;-72
2021/01/28 08:27:12;;;;;;;22.63;9.83;;;;;;;;;;5049801;28;20198;-72
2021/01/28 08:29:37;;;;;;;20.87;9.70;;;;;;;;;;5042745;28;20216;-72
2021/01/28 08:32:17;;;;;;;26.80;10.70;;;;;;;;;;5032676;28;20259;-72
2021/01/28 08:34:43;;;;;;;23.77;11.57;;;;;;;;;;5041851;28;20204;-72
2021/01/28 08:37:15;;;;;;;24.33;11.77;;;;;;;;;;5031241;28;20577;-72
2021/01/28 08:39:50;;;;;;;21.37;10.63;;;;;;;;;;5043917;28;20213;-72
2021/01/28 08:42:18;;;;;;;23.47;11.60;;;;;;;;;;5033761;28;20656;-72
2021/01/28 08:44:46;;;;;;;18.90;10.30;;;;;;;;;;5044267;28;20662;-72
2021/01/28 08:47:21;;;;;;;24.10;10.63;;;;;;;;;;5043386;28;20192;-72
2021/01/28 08:50:17;;;;;;;21.53;9.77;;;;;;;;;;5033243;28;20204;-72
2021/01/28 08:52:44;;;;;;;19.97;9.93;;;;;;;;;;5051722;28;20239;-72
2021/01/28 08:55:17;;;;;;;18.03;9.83;;;;;;;;;;5044302;28;20185;-72
2021/01/28 08:57:43;;;;;;;22.47;9.93;;;;;;;;;;5047784;28;20258;-72
2021/01/28 09:00:10;;;;;;;20.67;10.00;;;;;;;;;;5039089;28;20233;-71
2021/01/28 09:02:39;;;;;;;20.53;9.47;;;;;;;;;;5042413;28;20737;-71
2021/01/28 09:05:16;;;;;;;22.80;9.23;;;;;;;;;;5036466;28;20213;-71
2021/01/28 09:08:02;;;;;;;23.13;10.50;;;;;;;;;;5048325;28;20224;-72
2021/01/28 09:10:40;;;;;;;25.37;9.60;;;;;;;;;;5039125;28;20207;-71
2021/01/28 09:13:26;;;;;;;24.83;10.23;;;;;;;;;;5044996;28;20181;-71
2021/01/28 09:16:24;;;;;;;22.07;10.87;;;;;;;;;;5034619;28;20295;-72
2021/01/28 09:18:51;;;;;;;24.43;10.90;;;;;;;;;;5031151;28;20227;-71
2021/01/28 09:21:22;;;;;;;26.37;12.93;;;;;;;;;;5039563;28;20193;-71
2021/01/28 09:24:01;;;;;;;27.57;11.93;;;;;;;;;;5051666;28;20190;-71
2021/01/28 09:26:36;;;;;;;24.27;11.57;;;;;;;;;;5036237;28;20232;-72
2021/01/28 09:29:14;;;;;;;28.27;12.70;;;;;;;;;;5046986;28;20212;-72
2021/01/28 09:31:39;;;;;;;23.80;11.50;;;;;;;;;;5037032;28;20197;-72
2021/01/28 09:34:13;;;;;;;31.80;13.77;;;;;;;;;;5049339;28;20283;-71
2021/01/28 09:36:39;;;;;;;25.63;11.13;;;;;;;;;;5037557;28;20241;-72
2021/01/28 09:39:07;;;;;;;27.63;10.90;;;;;;;;;;5045779;28;20232;-72
2021/01/28 09:41:39;;;;;;;21.23;10.67;;;;;;;;;;5035529;28;20284;-72
2021/01/28 09:44:35;;;;;;;26.63;11.43;;;;;;;;;;5049470;28;20280;-72
2021/01/28 09:47:05;;;;;;;23.67;9.47;;;;;;;;;;5028807;28;20212;-72
2021/01/28 09:49:30;;;;;;;25.80;9.33;;;;;;;;;;5047932;28;20208;-72
2021/01/28 09:51:56;;;;;;;22.50;9.70;;;;;;;;;;5037154;28;20194;-72
2021/01/28 09:54:23;;;;;;;22.87;10.07;;;;;;;;;;5051597;28;20185;-73
2021/01/28 09:56:49;;;;;;;19.67;8.93;;;;;;;;;;5035027;28;20239;-72
2021/01/28 09:59:15;;;;;;;27.30;10.93;;;;;;;;;;5048089;28;20210;-72
2021/01/28 10:01:42;;;;;;;26.40;10.07;;;;;;;;;;5037504;28;20195;-72
2021/01/28 10:04:08;;;;;;;23.50;10.27;;;;;;;;;;5048272;28;20186;-72
2021/01/28 10:06:33;;;;;;;26.27;11.57;;;;;;;;;;5037935;28;20558;-72
2021/01/28 10:08:59;;;;;;;28.77;11.93;;;;;;;;;;5046693;28;20185;-72
2021/01/28 10:11:25;;;;;;;26.80;11.10;;;;;;;;;;5048512;28;20223;-73
2021/01/28 10:13:51;;;;;;;28.50;11.57;;;;;;;;;;5039172;28;20186;-74
2021/01/28 10:16:16;;;;;;;26.13;12.37;;;;;;;;;;5046175;28;20232;-72
2021/01/28 10:18:41;;;;;;;29.77;11.77;;;;;;;;;;5036033;28;20189;-72
2021/01/28 10:21:07;;;;;;;29.03;11.67;;;;;;;;;;5047222;28;20200;-72
2021/01/28 10:23:32;;;;;;;28.50;11.47;;;;;;;;;;5037547;28;20197;-72
2021/01/28 10:25:57;;;;;;;27.63;11.97;;;;;;;;;;5045769;28;20623;-72
2021/01/28 10:28:23;;;;;;;30.10;12.43;;;;;;;;;;5038027;28;20177;-72
2021/01/28 10:30:48;;;;;;;24.87;11.00;;;;;;;;;;5046834;28;20219;-72
2021/01/28 10:33:14;;;;;;;24.53;10.90;;;;;;;;;;5039653;28;20186;-72
2021/01/28 10:35:39;;;;;;;26.33;11.17;;;;;;;;;;5041701;28;20550;-72
2021/01/28 10:38:05;;;;;;;25.80;11.77;;;;;;;;;;5039717;28;20244;-72
2021/01/28 10:40:32;;;;;;;31.30;12.20;;;;;;;;;;5044180;28;20259;-73
2021/01/28 10:43:00;;;;;;;24.27;11.23;;;;;;;;;;5045472;28;20340;-72
2021/01/28 10:45:28;;;;;;;25.63;12.07;;;;;;;;;;5039857;28;20639;-72
2021/01/28 10:47:54;;;;;;;27.83;13.33;;;;;;;;;;5046327;28;20190;-72
2021/01/28 10:50:24;;;;;;;24.67;12.37;;;;;;;;;;5036822;28;20197;-72
2021/01/28 10:52:49;;;;;;;31.73;14.20;;;;;;;;;;5045708;28;20541;-72
2021/01/28 10:55:16;;;;;;;28.50;13.70;;;;;;;;;;5040335;28;20196;-72
2021/01/28 10:57:42;;;;;;;30.93;14.50;;;;;;;;;;5045281;28;20182;-72
2021/01/28 11:00:08;;;;;;;31.10;14.20;;;;;;;;;;5037884;28;20626;-72
2021/01/28 11:02:33;;;;;;;20.97;10.40;;;;;;;;;;5045678;28;20190;-73
2021/01/28 11:04:59;;;;;;;18.17;9.60;;;;;;;;;;5035861;28;20303;-74
2021/01/28 11:07:25;;;;;;;19.20;9.30;;;;;;;;;;5045284;28;20200;-73
2021/01/28 11:09:50;;;;;;;21.70;9.43;;;;;;;;;;5038306;28;20540;-73
2021/01/28 11:12:15;;;;;;;17.60;9.03;;;;;;;;;;5040795;28;20185;-73
2021/01/28 11:14:41;;;;;;;14.93;8.60;;;;;;;;;;4343305;28;10001575;-72
2021/01/28 11:17:06;;;;;;;15.30;8.47;;;;;;;;;;5038315;28;20268;-72
2021/01/28 11:19:31;;;;;;;12.73;7.97;;;;;;;;;;5043418;28;20639;-72
2021/01/28 11:21:57;;;;;;;14.20;7.90;;;;;;;;;;5031937;28;20656;-73
2021/01/28 11:24:22;;;;;;;13.43;7.57;;;;;;;;;;5043440;28;20201;-73
2021/01/28 11:26:48;;;;;;;13.33;7.20;;;;;;;;;;5034499;28;20204;-72
2021/01/28 11:29:13;;;;;;;13.03;6.60;;;;;;;;;;5045841;28;20190;-72
2021/01/28 11:31:38;;;;;;;8.97;6.20;;;;;;;;;;5032665;28;20235;-72
2021/01/28 11:34:05;;;;;;;13.47;6.87;;;;;;;;;;5040553;28;20196;-71
2021/01/28 11:36:31;;;;;;;14.10;6.47;;;;;;;;;;5024489;28;20276;-71
2021/01/28 11:38:56;;;;;;;10.47;6.23;;;;;;;;;;5039310;28;20231;-71
2021/01/28 11:41:22;;;;;;;12.97;6.60;;;;;;;;;;5030925;28;20200;-71
2021/01/28 11:43:47;;;;;;;10.13;5.90;;;;;;;;;;5035271;28;20189;-72
2021/01/28 11:46:13;;;;;;;9.07;5.83;;;;;;;;;;5057354;28;20276;-71
2021/01/28 11:48:38;;;;;;;15.90;6.20;;;;;;;;;;5031570;28;20197;-72
2021/01/28 11:51:03;;;;;;;11.57;5.67;;;;;;;;;;5039572;28;20207;-73
2021/01/28 11:53:29;;;;;;;11.53;6.13;;;;;;;;;;5033810;28;20197;-71
2021/01/28 11:55:55;;;;;;;12.90;5.93;;;;;;;;;;5039459;28;20205;-72
2021/01/28 11:58:21;;;;;;;14.33;6.07;;;;;;;;;;5034921;28;20201;-71
2021/01/28 12:00:46;;;;;;;10.97;5.70;;;;;;;;;;5037945;28;20206;-71
2021/01/28 12:03:12;;;;;;;10.63;5.13;;;;;;;;;;5022051;28;20186;-71
2021/01/28 12:05:38;;;;;;;7.63;5.00;;;;;;;;;;5043195;28;20299;-72
2021/01/28 12:08:03;;;;;;;10.00;5.50;;;;;;;;;;5036524;28;20231;-72
2021/01/28 12:10:30;;;;;;;8.93;5.43;;;;;;;;;;5045461;28;20272;-72
2021/01/28 12:12:56;;;;;;;10.53;5.40;;;;;;;;;;5041580;28;20185;-71
2021/01/28 12:15:22;;;;;;;11.53;6.07;;;;;;;;;;5044553;28;20712;-71
2021/01/28 12:17:49;;;;;;;11.37;6.37;;;;;;;;;;5045161;28;20197;-71
2021/01/28 12:20:17;;;;;;;9.77;5.27;;;;;;;;;;5038513;28;20224;-71
2021/01/28 12:22:42;;;;;;;10.80;5.60;;;;;;;;;;5045250;28;20185;-71
2021/01/28 12:25:08;;;;;;;10.23;5.10;;;;;;;;;;5039616;28;20649;-71
2021/01/28 12:27:33;;;;;;;11.33;5.57;;;;;;;;;;5048955;28;20193;-72
2021/01/28 12:30:00;;;;;;;8.63;4.20;;;;;;;;;;5038950;28;20582;-71
2021/01/28 12:32:26;;;;;;;10.17;4.97;;;;;;;;;;5048569;28;20628;-71
2021/01/28 12:34:51;;;;;;;7.37;4.30;;;;;;;;;;5052381;28;20188;-71
2021/01/28 12:37:17;;;;;;;9.47;4.30;;;;;;;;;;5048072;28;20245;-71
2021/01/28 12:39:42;;;;;;;9.00;4.67;;;;;;;;;;5039377;28;20219;-71
2021/01/28 12:42:08;;;;;;;7.67;4.47;;;;;;;;;;5049195;28;20189;-72
2021/01/28 12:44:33;;;;;;;9.73;4.33;;;;;;;;;;5040969;28;20605;-72
2021/01/28 12:46:59;;;;;;;6.43;3.80;;;;;;;;;;5047020;28;20207;-71
2021/01/28 12:49:24;;;;;;;6.47;4.43;;;;;;;;;;5046902;28;20196;-71
2021/01/28 12:51:53;;;;;;;7.03;4.07;;;;;;;;;;5034105;28;20193;-72
2021/01/28 12:54:19;;;;;;;6.70;4.07;;;;;;;;;;5049367;28;20648;-74
2021/01/28 12:56:44;;;;;;;5.40;3.23;;;;;;;;;;5039237;28;20193;-72
2021/01/28 12:59:09;;;;;;;8.33;3.67;;;;;;;;;;5046593;28;20290;-72
2021/01/28 13:01:35;;;;;;;7.83;3.50;;;;;;;;;;5036240;28;20212;-71
2021/01/28 13:04:00;;;;;;;7.50;3.00;;;;;;;;;;5044327;28;20300;-72
2021/01/28 13:06:25;;;;;;;7.87;3.30;;;;;;;;;;5035567;28;20554;-72
2021/01/28 13:08:50;;;;;;;6.37;3.53;;;;;;;;;;5047843;28;20213;-72
2021/01/28 13:11:16;;;;;;;5.73;3.50;;;;;;;;;;5036667;28;20189;-71
2021/01/28 13:13:42;;;;;;;6.60;3.63;;;;;;;;;;5048158;28;20193;-71
2021/01/28 13:16:08;;;;;;;6.60;3.53;;;;;;;;;;5036320;28;20714;-71
2021/01/28 13:18:33;;;;;;;6.30;3.80;;;;;;;;;;5048372;28;20296;-72
2021/01/28 13:20:59;;;;;;;9.57;4.50;;;;;;;;;;5047117;28;20247;-72
2021/01/28 13:23:25;;;;;;;5.80;3.80;;;;;;;;;;5040853;28;20649;-72
2021/01/28 13:25:50;;;;;;;7.53;3.93;;;;;;;;;;5050039;28;20196;-71
2021/01/28 13:28:16;;;;;;;8.00;4.27;;;;;;;;;;5039998;28;20680;-71
2021/01/28 13:30:41;;;;;;;5.67;3.60;;;;;;;;;;5046843;28;21208;-71
2021/01/28 13:33:07;;;;;;;6.10;3.47;;;;;;;;;;5038216;28;20181;-71
2021/01/28 13:35:32;;;;;;;4.90;3.40;;;;;;;;;;5047805;28;20201;-72
2021/01/28 13:37:58;;;;;;;6.67;4.00;;;;;;;;;;5039389;28;20225;-72
2021/01/28 13:40:26;;;;;;;4.53;3.23;;;;;;;;;;5047348;28;20210;-72
2021/01/28 13:42:52;;;;;;;6.60;3.50;;;;;;;;;;5034952;28;20223;-70
2021/01/28 13:45:19;;;;;;;5.73;4.20;;;;;;;;;;5047483;28;20564;-71
2021/01/28 13:47:45;;;;;;;7.50;4.30;;;;;;;;;;5036325;28;20250;-71
2021/01/28 13:50:14;;;;;;;7.40;3.70;;;;;;;;;;5048662;28;20254;-71
2021/01/28 13:52:39;;;;;;;6.90;4.20;;;;;;;;;;5041641;28;20672;-71
2021/01/28 13:55:07;;;;;;;7.03;4.13;;;;;;;;;;5044114;28;20193;-71
2021/01/28 13:57:32;;;;;;;6.90;4.23;;;;;;;;;;5042824;28;20189;-71
2021/01/28 13:59:57;;;;;;;7.87;4.23;;;;;;;;;;5036096;28;20262;-71
2021/01/28 14:02:23;;;;;;;8.37;4.63;;;;;;;;;;4350449;28;10000750;-71
2021/01/28 14:04:48;;;;;;;6.50;4.23;;;;;;;;;;5038916;28;20213;-72
2021/01/28 14:07:13;;;;;;;7.17;4.50;;;;;;;;;;5043466;28;20533;-71
2021/01/28 14:09:38;;;;;;;8.20;5.03;;;;;;;;;;5040784;28;20193;-71
2021/01/28 14:12:04;;;;;;;6.87;4.90;;;;;;;;;;5043532;28;20177;-71
2021/01/28 14:14:29;;;;;;;6.80;4.13;;;;;;;;;;5032853;28;20201;-71
2021/01/28 14:16:55;;;;;;;6.23;4.67;;;;;;;;;;5041525;28;20630;-71
2021/01/28 14:19:20;;;;;;;7.30;4.80;;;;;;;;;;5038443;28;20677;-71
2021/01/28 14:21:46;;;;;;;10.00;5.50;;;;;;;;;;5038262;28;20214;-71
2021/01/28 14:24:12;;;;;;;8.00;5.07;;;;;;;;;;5044134;28;20185;-71
2021/01/28 14:26:39;;;;;;;7.50;4.50;;;;;;;;;;5031489;28;20613;-71
2021/01/28 14:29:04;;;;;;;6.53;4.63;;;;;;;;;;5045384;28;20659;-71
2021/01/28 14:31:30;;;;;;;7.60;4.70;;;;;;;;;;5034887;28;20198;-71
2021/01/28 14:33:55;;;;;;;6.00;4.23;;;;;;;;;;5042922;28;20204;-71
2021/01/28 14:36:20;;;;;;;6.23;4.30;;;;;;;;;;5032932;28;20434;-71
2021/01/28 14:38:46;;;;;;;6.63;4.80;;;;;;;;;;5042015;28;20189;-71
2021/01/28 14:41:11;;;;;;;7.20;5.03;;;;;;;;;;5036986;28;20681;-71